sensor_id;sensor_type;location;lat;lon;timestamp;P1;durP1;ratioP1;P2;durP2;ratioP2
9559;SDS011;4818;50.860;4.648;2023-09-07T00:01:49;5.03;;;3.35;;
9559;SDS011;4818;50.860;4.648;2023-09-07T00:04:18;5.68;;;2.90;;
9559;SDS011;4818;50.860;4.648;2023-09-07T00:06:44;6.28;;;3.03;;
9559;SDS011;4818;50.860;4.648;2023-09-07T00:09:11;5.95;;;3.05;;
9559;SDS011;4818;50.860;4.648;2023-09-07T00:11:38;5.03;;;3.22;;
9559;SDS011;4818;50.860;4.648;2023-09-07T00:14:04;5.50;;;3.78;;
9559;SDS011;4818;50.860;4.648;2023-09-07T00:16:33;6.13;;;3.30;;
9559;SDS011;4818;50.860;4.648;2023-09-07T00:19:00;5.85;;;3.53;;
9559;SDS011;4818;50.860;4.648;2023-09-07T00:21:30;5.72;;;4.00;;
9559;SDS011;4818;50.860;4.648;2023-09-07T00:23:56;6.68;;;4.38;;
9559;SDS011;4818;50.860;4.648;2023-09-07T00:26:22;9.93;;;4.05;;
9559;SDS011;4818;50.860;4.648;2023-09-07T00:28:48;10.82;;;3.83;;
9559;SDS011;4818;50.860;4.648;2023-09-07T00:31:14;6.78;;;3.50;;
9559;SDS011;4818;50.860;4.648;2023-09-07T00:33:40;6.55;;;4.68;;
9559;SDS011;4818;50.860;4.648;2023-09-07T00:36:06;6.15;;;4.40;;
9559;SDS011;4818;50.860;4.648;2023-09-07T00:38:32;5.88;;;3.10;;
9559;SDS011;4818;50.860;4.648;2023-09-07T00:40:59;7.90;;;3.63;;
9559;SDS011;4818;50.860;4.648;2023-09-07T00:43:25;7.38;;;3.83;;
9559;SDS011;4818;50.860;4.648;2023-09-07T00:45:51;5.20;;;3.60;;
9559;SDS011;4818;50.860;4.648;2023-09-07T00:48:17;6.75;;;3.67;;
9559;SDS011;4818;50.860;4.648;2023-09-07T00:50:43;8.25;;;3.92;;
9559;SDS011;4818;50.860;4.648;2023-09-07T00:53:13;3.97;;;2.97;;
9559;SDS011;4818;50.860;4.648;2023-09-07T00:55:39;6.43;;;3.72;;
9559;SDS011;4818;50.860;4.648;2023-09-07T00:58:05;5.28;;;4.47;;
9559;SDS011;4818;50.860;4.648;2023-09-07T01:00:32;3.75;;;2.63;;
9559;SDS011;4818;50.860;4.648;2023-09-07T01:02:58;7.10;;;3.67;;
9559;SDS011;4818;50.860;4.648;2023-09-07T01:05:26;3.67;;;3.05;;
9559;SDS011;4818;50.860;4.648;2023-09-07T01:07:54;5.63;;;3.63;;
9559;SDS011;4818;50.860;4.648;2023-09-07T01:10:23;7.28;;;3.92;;
9559;SDS011;4818;50.860;4.648;2023-09-07T01:12:49;10.05;;;4.15;;
9559;SDS011;4818;50.860;4.648;2023-09-07T01:15:15;6.47;;;3.50;;
9559;SDS011;4818;50.860;4.648;2023-09-07T01:17:42;7.25;;;3.80;;
9559;SDS011;4818;50.860;4.648;2023-09-07T01:20:09;8.43;;;4.10;;
9559;SDS011;4818;50.860;4.648;2023-09-07T01:22:35;7.32;;;3.58;;
9559;SDS011;4818;50.860;4.648;2023-09-07T01:25:02;7.75;;;3.17;;
9559;SDS011;4818;50.860;4.648;2023-09-07T01:27:29;5.13;;;3.88;;
9559;SDS011;4818;50.860;4.648;2023-09-07T01:29:56;5.55;;;3.88;;
9559;SDS011;4818;50.860;4.648;2023-09-07T01:32:23;6.28;;;3.70;;
9559;SDS011;4818;50.860;4.648;2023-09-07T01:34:49;4.82;;;2.85;;
9559;SDS011;4818;50.860;4.648;2023-09-07T01:37:17;6.30;;;3.13;;
9559;SDS011;4818;50.860;4.648;2023-09-07T01:39:43;5.60;;;3.13;;
9559;SDS011;4818;50.860;4.648;2023-09-07T01:42:09;4.50;;;3.33;;
9559;SDS011;4818;50.860;4.648;2023-09-07T01:44:35;6.82;;;3.20;;
9559;SDS011;4818;50.860;4.648;2023-09-07T01:47:01;4.18;;;2.88;;
9559;SDS011;4818;50.860;4.648;2023-09-07T01:49:27;5.20;;;3.70;;
9559;SDS011;4818;50.860;4.648;2023-09-07T01:51:54;4.10;;;2.83;;
9559;SDS011;4818;50.860;4.648;2023-09-07T01:54:21;6.25;;;3.22;;
9559;SDS011;4818;50.860;4.648;2023-09-07T01:56:47;4.65;;;3.55;;
9559;SDS011;4818;50.860;4.648;2023-09-07T01:59:13;7.65;;;3.95;;
9559;SDS011;4818;50.860;4.648;2023-09-07T02:01:39;8.02;;;3.75;;
9559;SDS011;4818;50.860;4.648;2023-09-07T02:04:05;7.43;;;3.60;;
9559;SDS011;4818;50.860;4.648;2023-09-07T02:06:32;9.30;;;3.92;;
9559;SDS011;4818;50.860;4.648;2023-09-07T02:08:58;4.10;;;3.47;;
9559;SDS011;4818;50.860;4.648;2023-09-07T02:11:24;7.72;;;4.13;;
9559;SDS011;4818;50.860;4.648;2023-09-07T02:13:50;8.27;;;4.30;;
9559;SDS011;4818;50.860;4.648;2023-09-07T02:16:16;9.00;;;4.28;;
9559;SDS011;4818;50.860;4.648;2023-09-07T02:18:43;5.80;;;4.20;;
9559;SDS011;4818;50.860;4.648;2023-09-07T02:21:11;6.90;;;3.58;;
9559;SDS011;4818;50.860;4.648;2023-09-07T02:23:37;5.53;;;3.72;;
9559;SDS011;4818;50.860;4.648;2023-09-07T02:26:03;6.93;;;3.17;;
9559;SDS011;4818;50.860;4.648;2023-09-07T02:28:29;6.65;;;2.38;;
9559;SDS011;4818;50.860;4.648;2023-09-07T02:31:02;4.30;;;3.30;;
9559;SDS011;4818;50.860;4.648;2023-09-07T02:33:28;5.45;;;2.83;;
9559;SDS011;4818;50.860;4.648;2023-09-07T02:35:54;3.97;;;2.88;;
9559;SDS011;4818;50.860;4.648;2023-09-07T02:38:20;4.38;;;2.97;;
9559;SDS011;4818;50.860;4.648;2023-09-07T02:40:47;3.63;;;2.85;;
9559;SDS011;4818;50.860;4.648;2023-09-07T02:43:13;5.35;;;3.33;;
9559;SDS011;4818;50.860;4.648;2023-09-07T02:45:39;5.80;;;3.08;;
9559;SDS011;4818;50.860;4.648;2023-09-07T02:48:05;5.07;;;2.47;;
9559;SDS011;4818;50.860;4.648;2023-09-07T02:50:32;3.70;;;2.92;;
9559;SDS011;4818;50.860;4.648;2023-09-07T02:52:59;5.05;;;3.15;;
9559;SDS011;4818;50.860;4.648;2023-09-07T02:55:26;4.43;;;3.22;;
9559;SDS011;4818;50.860;4.648;2023-09-07T02:57:52;7.07;;;3.25;;
9559;SDS011;4818;50.860;4.648;2023-09-07T03:00:20;7.10;;;3.00;;
9559;SDS011;4818;50.860;4.648;2023-09-07T03:02:46;6.50;;;3.25;;
9559;SDS011;4818;50.860;4.648;2023-09-07T03:05:17;3.58;;;2.83;;
9559;SDS011;4818;50.860;4.648;2023-09-07T03:07:44;5.47;;;2.92;;
9559;SDS011;4818;50.860;4.648;2023-09-07T03:10:10;3.42;;;3.08;;
9559;SDS011;4818;50.860;4.648;2023-09-07T03:12:36;4.75;;;3.33;;
9559;SDS011;4818;50.860;4.648;2023-09-07T03:15:03;7.80;;;3.53;;
9559;SDS011;4818;50.860;4.648;2023-09-07T03:17:29;5.35;;;3.55;;
9559;SDS011;4818;50.860;4.648;2023-09-07T03:19:56;4.38;;;2.95;;
9559;SDS011;4818;50.860;4.648;2023-09-07T03:22:22;7.93;;;3.53;;
9559;SDS011;4818;50.860;4.648;2023-09-07T03:24:52;7.88;;;3.67;;
9559;SDS011;4818;50.860;4.648;2023-09-07T03:27:18;4.95;;;2.72;;
9559;SDS011;4818;50.860;4.648;2023-09-07T03:29:46;4.85;;;2.88;;
9559;SDS011;4818;50.860;4.648;2023-09-07T03:32:12;5.80;;;3.22;;
9559;SDS011;4818;50.860;4.648;2023-09-07T03:34:38;6.00;;;3.10;;
9559;SDS011;4818;50.860;4.648;2023-09-07T03:37:04;3.72;;;2.45;;
9559;SDS011;4818;50.860;4.648;2023-09-07T03:39:31;5.75;;;3.78;;
9559;SDS011;4818;50.860;4.648;2023-09-07T03:41:57;6.22;;;3.60;;
9559;SDS011;4818;50.860;4.648;2023-09-07T03:44:23;6.57;;;3.80;;
9559;SDS011;4818;50.860;4.648;2023-09-07T03:46:49;5.65;;;3.85;;
9559;SDS011;4818;50.860;4.648;2023-09-07T03:49:15;4.75;;;3.45;;
9559;SDS011;4818;50.860;4.648;2023-09-07T03:51:41;7.35;;;3.97;;
9559;SDS011;4818;50.860;4.648;2023-09-07T03:54:08;5.43;;;3.75;;
9559;SDS011;4818;50.860;4.648;2023-09-07T03:56:34;9.70;;;4.72;;
9559;SDS011;4818;50.860;4.648;2023-09-07T03:59:00;5.85;;;4.30;;
9559;SDS011;4818;50.860;4.648;2023-09-07T04:01:26;6.80;;;3.90;;
9559;SDS011;4818;50.860;4.648;2023-09-07T04:03:52;4.85;;;3.28;;
9559;SDS011;4818;50.860;4.648;2023-09-07T04:06:19;4.88;;;3.67;;
9559;SDS011;4818;50.860;4.648;2023-09-07T04:08:45;7.72;;;2.70;;
9559;SDS011;4818;50.860;4.648;2023-09-07T04:11:11;6.55;;;2.60;;
9559;SDS011;4818;50.860;4.648;2023-09-07T04:13:37;4.70;;;2.92;;
9559;SDS011;4818;50.860;4.648;2023-09-07T04:16:03;5.07;;;3.00;;
9559;SDS011;4818;50.860;4.648;2023-09-07T04:18:29;4.53;;;3.63;;
9559;SDS011;4818;50.860;4.648;2023-09-07T04:21:04;6.35;;;2.80;;
9559;SDS011;4818;50.860;4.648;2023-09-07T04:23:30;4.90;;;3.42;;
9559;SDS011;4818;50.860;4.648;2023-09-07T04:26:09;5.80;;;3.50;;
9559;SDS011;4818;50.860;4.648;2023-09-07T04:28:36;8.38;;;3.35;;
9559;SDS011;4818;50.860;4.648;2023-09-07T04:31:02;4.88;;;2.75;;
9559;SDS011;4818;50.860;4.648;2023-09-07T04:33:32;4.03;;;2.58;;
9559;SDS011;4818;50.860;4.648;2023-09-07T04:36:08;4.72;;;2.85;;
9559;SDS011;4818;50.860;4.648;2023-09-07T04:38:35;4.20;;;2.80;;
9559;SDS011;4818;50.860;4.648;2023-09-07T04:43:33;4.53;;;3.30;;
9559;SDS011;4818;50.860;4.648;2023-09-07T04:45:59;6.43;;;3.60;;
9559;SDS011;4818;50.860;4.648;2023-09-07T04:48:25;7.70;;;3.40;;
9559;SDS011;4818;50.860;4.648;2023-09-07T04:50:58;9.00;;;4.25;;
9559;SDS011;4818;50.860;4.648;2023-09-07T04:53:24;4.38;;;2.95;;
9559;SDS011;4818;50.860;4.648;2023-09-07T04:55:51;5.65;;;2.15;;
9559;SDS011;4818;50.860;4.648;2023-09-07T04:58:17;2.63;;;2.33;;
9559;SDS011;4818;50.860;4.648;2023-09-07T05:00:43;4.38;;;3.03;;
9559;SDS011;4818;50.860;4.648;2023-09-07T05:03:09;2.85;;;2.08;;
9559;SDS011;4818;50.860;4.648;2023-09-07T05:05:35;4.80;;;2.40;;
9559;SDS011;4818;50.860;4.648;2023-09-07T05:08:01;4.45;;;2.08;;
9559;SDS011;4818;50.860;4.648;2023-09-07T05:10:29;5.65;;;2.42;;
9559;SDS011;4818;50.860;4.648;2023-09-07T05:12:55;3.70;;;1.80;;
9559;SDS011;4818;50.860;4.648;2023-09-07T05:15:21;3.55;;;1.90;;
9559;SDS011;4818;50.860;4.648;2023-09-07T05:17:47;4.85;;;2.20;;
9559;SDS011;4818;50.860;4.648;2023-09-07T05:20:13;3.75;;;1.65;;
9559;SDS011;4818;50.860;4.648;2023-09-07T05:22:39;10.32;;;2.10;;
9559;SDS011;4818;50.860;4.648;2023-09-07T05:25:06;5.53;;;1.73;;
9559;SDS011;4818;50.860;4.648;2023-09-07T05:27:34;5.22;;;1.88;;
9559;SDS011;4818;50.860;4.648;2023-09-07T05:30:00;3.53;;;1.55;;
9559;SDS011;4818;50.860;4.648;2023-09-07T05:32:26;4.07;;;1.45;;
9559;SDS011;4818;50.860;4.648;2023-09-07T05:34:52;3.75;;;1.50;;
9559;SDS011;4818;50.860;4.648;2023-09-07T05:37:18;7.25;;;1.48;;
9559;SDS011;4818;50.860;4.648;2023-09-07T05:39:44;4.30;;;1.00;;
9559;SDS011;4818;50.860;4.648;2023-09-07T05:42:10;3.17;;;1.25;;
9559;SDS011;4818;50.860;4.648;2023-09-07T05:44:37;2.13;;;1.33;;
9559;SDS011;4818;50.860;4.648;2023-09-07T05:47:04;6.05;;;1.48;;
9559;SDS011;4818;50.860;4.648;2023-09-07T05:49:30;3.50;;;1.70;;
9559;SDS011;4818;50.860;4.648;2023-09-07T05:51:56;3.50;;;1.35;;
9559;SDS011;4818;50.860;4.648;2023-09-07T05:54:22;6.22;;;1.85;;
9559;SDS011;4818;50.860;4.648;2023-09-07T05:56:48;3.20;;;1.75;;
9559;SDS011;4818;50.860;4.648;2023-09-07T05:59:14;3.53;;;1.38;;
9559;SDS011;4818;50.860;4.648;2023-09-07T06:01:41;4.80;;;1.52;;
9559;SDS011;4818;50.860;4.648;2023-09-07T06:04:08;3.63;;;1.40;;
9559;SDS011;4818;50.860;4.648;2023-09-07T06:06:34;2.88;;;1.20;;
9559;SDS011;4818;50.860;4.648;2023-09-07T06:09:00;4.25;;;1.48;;
9559;SDS011;4818;50.860;4.648;2023-09-07T06:11:29;3.78;;;1.92;;
9559;SDS011;4818;50.860;4.648;2023-09-07T06:13:57;6.95;;;1.58;;
9559;SDS011;4818;50.860;4.648;2023-09-07T06:16:23;2.10;;;1.27;;
9559;SDS011;4818;50.860;4.648;2023-09-07T06:18:50;2.08;;;1.17;;
9559;SDS011;4818;50.860;4.648;2023-09-07T06:21:16;3.85;;;1.27;;
9559;SDS011;4818;50.860;4.648;2023-09-07T06:23:42;4.53;;;1.00;;
9559;SDS011;4818;50.860;4.648;2023-09-07T06:26:08;3.40;;;1.20;;
9559;SDS011;4818;50.860;4.648;2023-09-07T06:28:34;2.90;;;1.33;;
9559;SDS011;4818;50.860;4.648;2023-09-07T06:31:01;2.10;;;1.10;;
9559;SDS011;4818;50.860;4.648;2023-09-07T06:33:27;2.75;;;1.27;;
9559;SDS011;4818;50.860;4.648;2023-09-07T06:35:53;2.58;;;1.52;;
9559;SDS011;4818;50.860;4.648;2023-09-07T06:38:21;3.15;;;1.20;;
9559;SDS011;4818;50.860;4.648;2023-09-07T06:40:47;2.35;;;1.40;;
9559;SDS011;4818;50.860;4.648;2023-09-07T06:43:14;5.53;;;1.95;;
9559;SDS011;4818;50.860;4.648;2023-09-07T06:45:40;2.58;;;1.88;;
9559;SDS011;4818;50.860;4.648;2023-09-07T06:48:06;2.75;;;1.73;;
9559;SDS011;4818;50.860;4.648;2023-09-07T06:50:33;4.53;;;1.95;;
9559;SDS011;4818;50.860;4.648;2023-09-07T06:52:59;5.28;;;2.08;;
9559;SDS011;4818;50.860;4.648;2023-09-07T06:55:25;2.47;;;1.60;;
9559;SDS011;4818;50.860;4.648;2023-09-07T06:57:53;3.10;;;2.60;;
9559;SDS011;4818;50.860;4.648;2023-09-07T07:00:23;3.40;;;2.87;;
9559;SDS011;4818;50.860;4.648;2023-09-07T07:02:49;4.05;;;3.65;;
9559;SDS011;4818;50.860;4.648;2023-09-07T07:05:16;4.95;;;3.30;;
9559;SDS011;4818;50.860;4.648;2023-09-07T07:07:42;4.28;;;3.50;;
9559;SDS011;4818;50.860;4.648;2023-09-07T07:10:09;6.70;;;3.97;;
9559;SDS011;4818;50.860;4.648;2023-09-07T07:12:35;4.75;;;4.07;;
9559;SDS011;4818;50.860;4.648;2023-09-07T07:15:03;4.32;;;3.92;;
9559;SDS011;4818;50.860;4.648;2023-09-07T07:17:30;6.47;;;3.38;;
9559;SDS011;4818;50.860;4.648;2023-09-07T07:19:56;5.25;;;3.40;;
9559;SDS011;4818;50.860;4.648;2023-09-07T07:22:22;5.82;;;3.35;;
9559;SDS011;4818;50.860;4.648;2023-09-07T07:24:48;6.70;;;3.42;;
9559;SDS011;4818;50.860;4.648;2023-09-07T07:27:14;6.00;;;3.25;;
9559;SDS011;4818;50.860;4.648;2023-09-07T07:29:40;4.40;;;3.28;;
9559;SDS011;4818;50.860;4.648;2023-09-07T07:32:06;6.03;;;2.95;;
9559;SDS011;4818;50.860;4.648;2023-09-07T07:34:32;3.88;;;2.70;;
9559;SDS011;4818;50.860;4.648;2023-09-07T07:36:59;4.53;;;3.00;;
9559;SDS011;4818;50.860;4.648;2023-09-07T07:39:25;10.63;;;3.63;;
9559;SDS011;4818;50.860;4.648;2023-09-07T07:41:51;6.50;;;2.35;;
9559;SDS011;4818;50.860;4.648;2023-09-07T07:44:17;3.85;;;3.28;;
9559;SDS011;4818;50.860;4.648;2023-09-07T07:46:43;5.25;;;3.67;;
9559;SDS011;4818;50.860;4.648;2023-09-07T07:49:09;3.60;;;2.30;;
9559;SDS011;4818;50.860;4.648;2023-09-07T07:51:36;5.40;;;3.42;;
9559;SDS011;4818;50.860;4.648;2023-09-07T07:54:02;3.38;;;3.00;;
9559;SDS011;4818;50.860;4.648;2023-09-07T07:56:29;4.35;;;3.20;;
9559;SDS011;4818;50.860;4.648;2023-09-07T07:58:55;3.90;;;2.35;;
9559;SDS011;4818;50.860;4.648;2023-09-07T08:01:21;4.22;;;2.63;;
9559;SDS011;4818;50.860;4.648;2023-09-07T08:03:48;7.13;;;3.00;;
9559;SDS011;4818;50.860;4.648;2023-09-07T08:06:14;4.28;;;2.88;;
9559;SDS011;4818;50.860;4.648;2023-09-07T08:08:40;3.53;;;3.00;;
9559;SDS011;4818;50.860;4.648;2023-09-07T08:11:07;4.50;;;2.60;;
9559;SDS011;4818;50.860;4.648;2023-09-07T08:13:34;5.50;;;2.33;;
9559;SDS011;4818;50.860;4.648;2023-09-07T08:16:01;3.08;;;2.65;;
9559;SDS011;4818;50.860;4.648;2023-09-07T08:18:27;3.00;;;2.13;;
9559;SDS011;4818;50.860;4.648;2023-09-07T08:20:53;2.17;;;1.35;;
9559;SDS011;4818;50.860;4.648;2023-09-07T08:23:20;5.32;;;3.00;;
9559;SDS011;4818;50.860;4.648;2023-09-07T08:25:48;5.53;;;2.60;;
9559;SDS011;4818;50.860;4.648;2023-09-07T08:28:14;5.45;;;2.63;;
9559;SDS011;4818;50.860;4.648;2023-09-07T08:30:43;2.60;;;2.25;;
9559;SDS011;4818;50.860;4.648;2023-09-07T08:33:09;5.22;;;2.13;;
9559;SDS011;4818;50.860;4.648;2023-09-07T08:35:35;2.00;;;1.80;;
9559;SDS011;4818;50.860;4.648;2023-09-07T08:38:09;4.30;;;2.13;;
9559;SDS011;4818;50.860;4.648;2023-09-07T08:40:35;2.50;;;1.90;;
9559;SDS011;4818;50.860;4.648;2023-09-07T08:43:05;3.78;;;1.77;;
9559;SDS011;4818;50.860;4.648;2023-09-07T08:45:32;4.32;;;2.20;;
9559;SDS011;4818;50.860;4.648;2023-09-07T08:48:05;3.35;;;1.83;;
9559;SDS011;4818;50.860;4.648;2023-09-07T08:50:32;2.53;;;1.95;;
9559;SDS011;4818;50.860;4.648;2023-09-07T08:52:58;3.70;;;1.63;;
9559;SDS011;4818;50.860;4.648;2023-09-07T08:55:25;4.20;;;1.60;;
9559;SDS011;4818;50.860;4.648;2023-09-07T08:57:51;5.22;;;2.15;;
9559;SDS011;4818;50.860;4.648;2023-09-07T09:00:17;1.77;;;1.45;;
9559;SDS011;4818;50.860;4.648;2023-09-07T09:02:48;2.42;;;1.67;;
9559;SDS011;4818;50.860;4.648;2023-09-07T09:05:14;4.35;;;1.15;;
9559;SDS011;4818;50.860;4.648;2023-09-07T09:07:41;1.67;;;1.20;;
9559;SDS011;4818;50.860;4.648;2023-09-07T09:10:07;5.95;;;1.30;;
9559;SDS011;4818;50.860;4.648;2023-09-07T09:12:34;1.60;;;1.27;;
9559;SDS011;4818;50.860;4.648;2023-09-07T09:15:00;1.70;;;1.20;;
9559;SDS011;4818;50.860;4.648;2023-09-07T09:17:28;1.88;;;1.13;;
9559;SDS011;4818;50.860;4.648;2023-09-07T09:19:55;1.92;;;1.10;;
9559;SDS011;4818;50.860;4.648;2023-09-07T09:22:21;2.35;;;1.20;;
9559;SDS011;4818;50.860;4.648;2023-09-07T09:24:48;2.65;;;1.13;;
9559;SDS011;4818;50.860;4.648;2023-09-07T09:27:14;2.40;;;1.13;;
9559;SDS011;4818;50.860;4.648;2023-09-07T09:29:40;1.83;;;1.08;;
9559;SDS011;4818;50.860;4.648;2023-09-07T09:32:07;2.53;;;1.10;;
9559;SDS011;4818;50.860;4.648;2023-09-07T09:34:33;1.60;;;1.50;;
9559;SDS011;4818;50.860;4.648;2023-09-07T09:37:01;6.15;;;1.00;;
9559;SDS011;4818;50.860;4.648;2023-09-07T09:39:28;2.65;;;0.90;;
9559;SDS011;4818;50.860;4.648;2023-09-07T09:41:55;1.75;;;0.77;;
9559;SDS011;4818;50.860;4.648;2023-09-07T09:44:22;1.40;;;1.00;;
9559;SDS011;4818;50.860;4.648;2023-09-07T09:46:51;4.55;;;1.02;;
9559;SDS011;4818;50.860;4.648;2023-09-07T09:49:19;5.93;;;0.90;;
9559;SDS011;4818;50.860;4.648;2023-09-07T09:51:46;5.35;;;0.90;;
9559;SDS011;4818;50.860;4.648;2023-09-07T09:54:13;1.17;;;0.70;;
9559;SDS011;4818;50.860;4.648;2023-09-07T09:56:41;2.38;;;1.00;;
9559;SDS011;4818;50.860;4.648;2023-09-07T09:59:07;3.13;;;1.10;;
9559;SDS011;4818;50.860;4.648;2023-09-07T10:01:46;3.20;;;1.10;;
9559;SDS011;4818;50.860;4.648;2023-09-07T10:04:16;3.05;;;0.88;;
9559;SDS011;4818;50.860;4.648;2023-09-07T10:06:59;0.95;;;0.70;;
9559;SDS011;4818;50.860;4.648;2023-09-07T10:09:33;2.85;;;0.88;;
9559;SDS011;4818;50.860;4.648;2023-09-07T10:12:02;1.63;;;1.00;;
9559;SDS011;4818;50.860;4.648;2023-09-07T10:14:39;2.08;;;0.65;;
9559;SDS011;4818;50.860;4.648;2023-09-07T10:17:06;1.13;;;0.80;;
9559;SDS011;4818;50.860;4.648;2023-09-07T10:19:32;3.35;;;0.90;;
9559;SDS011;4818;50.860;4.648;2023-09-07T10:22:01;2.05;;;0.70;;
9559;SDS011;4818;50.860;4.648;2023-09-07T10:24:34;3.38;;;0.90;;
9559;SDS011;4818;50.860;4.648;2023-09-07T10:27:02;4.80;;;0.90;;
9559;SDS011;4818;50.860;4.648;2023-09-07T10:29:39;2.22;;;0.60;;
9559;SDS011;4818;50.860;4.648;2023-09-07T10:32:06;1.83;;;0.82;;
9559;SDS011;4818;50.860;4.648;2023-09-07T10:34:34;2.67;;;0.95;;
9559;SDS011;4818;50.860;4.648;2023-09-07T10:37:04;3.15;;;0.60;;
9559;SDS011;4818;50.860;4.648;2023-09-07T10:39:32;4.38;;;0.80;;
9559;SDS011;4818;50.860;4.648;2023-09-07T10:41:59;2.33;;;0.70;;
9559;SDS011;4818;50.860;4.648;2023-09-07T10:44:25;2.25;;;0.85;;
9559;SDS011;4818;50.860;4.648;2023-09-07T10:46:51;4.20;;;0.70;;
9559;SDS011;4818;50.860;4.648;2023-09-07T10:49:18;1.63;;;0.73;;
9559;SDS011;4818;50.860;4.648;2023-09-07T10:51:45;1.00;;;0.70;;
9559;SDS011;4818;50.860;4.648;2023-09-07T10:54:15;2.50;;;0.70;;
9559;SDS011;4818;50.860;4.648;2023-09-07T10:56:42;3.97;;;0.73;;
9559;SDS011;4818;50.860;4.648;2023-09-07T10:59:09;1.77;;;0.60;;
9559;SDS011;4818;50.860;4.648;2023-09-07T11:01:35;2.60;;;0.85;;
9559;SDS011;4818;50.860;4.648;2023-09-07T11:04:01;1.20;;;0.60;;
9559;SDS011;4818;50.860;4.648;2023-09-07T11:06:29;1.40;;;0.63;;
9559;SDS011;4818;50.860;4.648;2023-09-07T11:08:55;1.40;;;0.73;;
9559;SDS011;4818;50.860;4.648;2023-09-07T11:11:21;1.10;;;0.60;;
9559;SDS011;4818;50.860;4.648;2023-09-07T11:13:48;3.10;;;0.68;;
9559;SDS011;4818;50.860;4.648;2023-09-07T11:16:14;2.92;;;0.70;;
9559;SDS011;4818;50.860;4.648;2023-09-07T11:18:40;2.40;;;0.70;;
9559;SDS011;4818;50.860;4.648;2023-09-07T11:21:06;2.00;;;0.70;;
9559;SDS011;4818;50.860;4.648;2023-09-07T11:23:32;1.42;;;0.80;;
9559;SDS011;4818;50.860;4.648;2023-09-07T11:26:05;2.58;;;0.95;;
9559;SDS011;4818;50.860;4.648;2023-09-07T11:28:31;2.20;;;0.80;;
9559;SDS011;4818;50.860;4.648;2023-09-07T11:30:58;2.33;;;1.42;;
9559;SDS011;4818;50.860;4.648;2023-09-07T11:33:24;5.43;;;1.10;;
9559;SDS011;4818;50.860;4.648;2023-09-07T11:35:51;1.73;;;0.80;;
9559;SDS011;4818;50.860;4.648;2023-09-07T11:38:19;1.60;;;1.27;;
9559;SDS011;4818;50.860;4.648;2023-09-07T11:40:46;1.30;;;0.90;;
9559;SDS011;4818;50.860;4.648;2023-09-07T11:43:12;1.90;;;0.60;;
9559;SDS011;4818;50.860;4.648;2023-09-07T11:45:39;1.63;;;0.85;;
9559;SDS011;4818;50.860;4.648;2023-09-07T11:48:05;2.03;;;0.90;;
9559;SDS011;4818;50.860;4.648;2023-09-07T11:50:34;1.33;;;0.75;;
9559;SDS011;4818;50.860;4.648;2023-09-07T11:53:00;2.60;;;1.02;;
9559;SDS011;4818;50.860;4.648;2023-09-07T11:55:26;1.75;;;0.93;;
9559;SDS011;4818;50.860;4.648;2023-09-07T11:57:52;2.40;;;1.02;;
9559;SDS011;4818;50.860;4.648;2023-09-07T12:00:19;2.50;;;1.15;;
9559;SDS011;4818;50.860;4.648;2023-09-07T12:02:45;2.63;;;0.95;;
9559;SDS011;4818;50.860;4.648;2023-09-07T12:05:11;3.15;;;1.00;;
9559;SDS011;4818;50.860;4.648;2023-09-07T12:07:40;2.70;;;1.52;;
9559;SDS011;4818;50.860;4.648;2023-09-07T12:10:06;3.70;;;1.38;;
9559;SDS011;4818;50.860;4.648;2023-09-07T12:12:42;2.90;;;1.20;;
9559;SDS011;4818;50.860;4.648;2023-09-07T12:15:11;5.95;;;1.40;;
9559;SDS011;4818;50.860;4.648;2023-09-07T12:17:37;3.22;;;1.23;;
9559;SDS011;4818;50.860;4.648;2023-09-07T12:20:04;1.95;;;1.15;;
9559;SDS011;4818;50.860;4.648;2023-09-07T12:22:36;3.00;;;1.15;;
9559;SDS011;4818;50.860;4.648;2023-09-07T12:25:03;2.40;;;1.60;;
9559;SDS011;4818;50.860;4.648;2023-09-07T12:27:32;2.42;;;1.77;;
9559;SDS011;4818;50.860;4.648;2023-09-07T12:29:58;9.35;;;1.50;;
9559;SDS011;4818;50.860;4.648;2023-09-07T12:32:24;4.40;;;1.52;;
9559;SDS011;4818;50.860;4.648;2023-09-07T12:34:50;4.20;;;2.15;;
9559;SDS011;4818;50.860;4.648;2023-09-07T12:37:19;3.00;;;1.70;;
9559;SDS011;4818;50.860;4.648;2023-09-07T12:39:48;3.53;;;1.63;;
9559;SDS011;4818;50.860;4.648;2023-09-07T12:42:14;3.05;;;1.67;;
9559;SDS011;4818;50.860;4.648;2023-09-07T12:44:40;3.85;;;2.60;;
9559;SDS011;4818;50.860;4.648;2023-09-07T12:47:06;2.75;;;1.80;;
9559;SDS011;4818;50.860;4.648;2023-09-07T12:49:32;3.45;;;1.55;;
9559;SDS011;4818;50.860;4.648;2023-09-07T12:51:59;6.07;;;1.92;;
9559;SDS011;4818;50.860;4.648;2023-09-07T12:54:25;4.05;;;1.45;;
9559;SDS011;4818;50.860;4.648;2023-09-07T12:56:51;2.78;;;2.10;;
9559;SDS011;4818;50.860;4.648;2023-09-07T12:59:17;4.60;;;2.15;;
9559;SDS011;4818;50.860;4.648;2023-09-07T13:01:43;2.92;;;1.30;;
9559;SDS011;4818;50.860;4.648;2023-09-07T13:04:10;2.83;;;1.65;;
9559;SDS011;4818;50.860;4.648;2023-09-07T13:06:36;2.45;;;1.50;;
9559;SDS011;4818;50.860;4.648;2023-09-07T13:09:02;4.05;;;1.55;;
9559;SDS011;4818;50.860;4.648;2023-09-07T13:11:30;5.28;;;1.88;;
9559;SDS011;4818;50.860;4.648;2023-09-07T13:13:56;1.50;;;1.30;;
9559;SDS011;4818;50.860;4.648;2023-09-07T13:16:22;2.85;;;2.05;;
9559;SDS011;4818;50.860;4.648;2023-09-07T13:18:48;2.15;;;1.40;;
9559;SDS011;4818;50.860;4.648;2023-09-07T13:21:14;4.07;;;1.40;;
9559;SDS011;4818;50.860;4.648;2023-09-07T13:23:41;3.58;;;1.75;;
9559;SDS011;4818;50.860;4.648;2023-09-07T13:26:07;2.72;;;1.30;;
9559;SDS011;4818;50.860;4.648;2023-09-07T13:28:33;1.75;;;1.30;;
9559;SDS011;4818;50.860;4.648;2023-09-07T13:30:59;2.70;;;1.42;;
9559;SDS011;4818;50.860;4.648;2023-09-07T13:33:25;1.92;;;1.38;;
9559;SDS011;4818;50.860;4.648;2023-09-07T13:35:51;2.15;;;1.40;;
9559;SDS011;4818;50.860;4.648;2023-09-07T13:38:17;3.75;;;1.10;;
9559;SDS011;4818;50.860;4.648;2023-09-07T13:40:43;3.78;;;1.10;;
9559;SDS011;4818;50.860;4.648;2023-09-07T13:43:09;2.40;;;1.70;;
9559;SDS011;4818;50.860;4.648;2023-09-07T13:45:36;2.55;;;1.35;;
9559;SDS011;4818;50.860;4.648;2023-09-07T13:48:02;3.58;;;1.50;;
9559;SDS011;4818;50.860;4.648;2023-09-07T13:50:28;2.35;;;1.48;;
9559;SDS011;4818;50.860;4.648;2023-09-07T13:52:54;2.20;;;1.17;;
9559;SDS011;4818;50.860;4.648;2023-09-07T13:55:21;2.45;;;1.20;;
9559;SDS011;4818;50.860;4.648;2023-09-07T13:57:47;3.85;;;1.70;;
9559;SDS011;4818;50.860;4.648;2023-09-07T14:00:13;4.15;;;1.75;;
9559;SDS011;4818;50.860;4.648;2023-09-07T14:02:39;4.75;;;1.48;;
9559;SDS011;4818;50.860;4.648;2023-09-07T14:05:05;1.77;;;1.05;;
9559;SDS011;4818;50.860;4.648;2023-09-07T14:07:33;2.95;;;2.00;;
9559;SDS011;4818;50.860;4.648;2023-09-07T14:09:59;5.35;;;1.55;;
9559;SDS011;4818;50.860;4.648;2023-09-07T14:12:26;3.75;;;1.88;;
9559;SDS011;4818;50.860;4.648;2023-09-07T14:14:52;6.72;;;1.80;;
9559;SDS011;4818;50.860;4.648;2023-09-07T14:17:18;1.95;;;1.55;;
9559;SDS011;4818;50.860;4.648;2023-09-07T14:19:44;3.03;;;1.60;;
9559;SDS011;4818;50.860;4.648;2023-09-07T14:22:11;4.15;;;1.52;;
9559;SDS011;4818;50.860;4.648;2023-09-07T14:24:37;4.15;;;1.55;;
9559;SDS011;4818;50.860;4.648;2023-09-07T14:27:03;2.67;;;1.13;;
9559;SDS011;4818;50.860;4.648;2023-09-07T14:29:30;3.97;;;1.52;;
9559;SDS011;4818;50.860;4.648;2023-09-07T14:31:56;1.88;;;1.30;;
9559;SDS011;4818;50.860;4.648;2023-09-07T14:34:22;5.45;;;1.58;;
9559;SDS011;4818;50.860;4.648;2023-09-07T14:36:49;3.88;;;1.50;;
9559;SDS011;4818;50.860;4.648;2023-09-07T14:39:15;1.95;;;1.70;;
9559;SDS011;4818;50.860;4.648;2023-09-07T14:41:43;3.13;;;1.25;;
9559;SDS011;4818;50.860;4.648;2023-09-07T14:44:09;5.05;;;1.73;;
9559;SDS011;4818;50.860;4.648;2023-09-07T14:46:35;2.92;;;1.30;;
9559;SDS011;4818;50.860;4.648;2023-09-07T14:49:01;2.47;;;1.27;;
9559;SDS011;4818;50.860;4.648;2023-09-07T14:51:28;1.85;;;1.23;;
9559;SDS011;4818;50.860;4.648;2023-09-07T14:53:54;8.80;;;1.80;;
9559;SDS011;4818;50.860;4.648;2023-09-07T14:56:20;3.25;;;1.52;;
9559;SDS011;4818;50.860;4.648;2023-09-07T14:58:46;3.28;;;1.55;;
9559;SDS011;4818;50.860;4.648;2023-09-07T15:01:13;2.70;;;1.67;;
9559;SDS011;4818;50.860;4.648;2023-09-07T15:03:39;2.70;;;1.30;;
9559;SDS011;4818;50.860;4.648;2023-09-07T15:06:08;3.88;;;1.67;;
9559;SDS011;4818;50.860;4.648;2023-09-07T15:08:37;2.20;;;1.55;;
9559;SDS011;4818;50.860;4.648;2023-09-07T15:11:03;4.53;;;1.75;;
9559;SDS011;4818;50.860;4.648;2023-09-07T15:13:29;1.88;;;1.50;;
9559;SDS011;4818;50.860;4.648;2023-09-07T15:15:55;3.90;;;1.77;;